Time;durP1;ratioP1;P1;durP2;ratioP2;P2;SDS_P1;SDS_P2;PMS_P1;PMS_P2;Temp;Humidity;BMP_temperature;BMP_pressure;BME280_temperature;BME280_humidity;BME280_pressure;Samples;Min_cycle;Max_cycle;Signal;HPM_P1;HPM_P2
2024/04/06 00:02:24;;;;;;;3.28;1.20;;;;;;;14.15;100.00;100924.84;5020913;28;20090;-73
2024/04/06 00:04:50;;;;;;;3.95;1.55;;;;;;;14.11;100.00;100928.78;5020704;28;20034;-73
2024/04/06 00:07:15;;;;;;;2.50;1.33;;;;;;;14.18;100.00;100919.25;5022720;28;20037;-73
2024/04/06 00:09:41;;;;;;;2.75;1.20;;;;;;;14.14;100.00;100912.78;5013861;28;20033;-72
2024/04/06 00:12:07;;;;;;;5.57;1.38;;;;;;;14.23;100.00;100922.16;5019289;28;22044;-72
2024/04/06 00:14:32;;;;;;;2.95;1.10;;;;;;;14.20;100.00;100912.91;5019337;28;20033;-73
2024/04/06 00:16:57;;;;;;;6.38;1.65;;;;;;;14.12;100.00;100905.13;5023732;28;20532;-73
2024/04/06 00:19:23;;;;;;;5.07;1.35;;;;;;;14.04;100.00;100910.44;5018742;28;20095;-73
2024/04/06 00:21:49;;;;;;;3.40;1.30;;;;;;;14.09;100.00;100915.09;5019453;28;20041;-73
2024/04/06 00:24:15;;;;;;;3.22;1.13;;;;;;;14.04;100.00;100913.03;4999565;28;20669;-72
2024/04/06 00:26:40;;;;;;;5.57;1.95;;;;;;;14.01;100.00;100919.44;5018599;28;20092;-73
2024/04/06 00:29:05;;;;;;;4.07;1.50;;;;;;;13.95;100.00;100920.09;5022368;28;20049;-72
2024/04/06 00:31:31;;;;;;;3.85;1.50;;;;;;;13.92;100.00;100920.47;5018752;28;20041;-73
2024/04/06 00:34:01;;;;;;;4.93;1.30;;;;;;;13.92;100.00;100920.47;5027598;28;20037;-72
2024/04/06 00:36:30;;;;;;;4.75;1.40;;;;;;;13.86;100.00;100920.34;5025474;28;20021;-73
2024/04/06 00:38:56;;;;;;;4.75;1.15;;;;;;;13.80;100.00;100921.84;5038374;28;20086;-73
2024/04/06 00:41:22;;;;;;;8.35;1.70;;;;;;;13.82;100.00;100925.09;5022731;28;20037;-73
2024/04/06 00:43:47;;;;;;;2.95;1.27;;;;;;;13.86;100.00;100926.38;5030672;28;20037;-72
2024/04/06 00:46:13;;;;;;;6.20;1.27;;;;;;;13.95;100.00;100916.69;5040653;28;20783;-73
2024/04/06 00:48:38;;;;;;;4.05;1.27;;;;;;;13.96;100.00;100921.75;5025112;28;20400;-72
2024/04/06 00:51:05;;;;;;;5.55;1.48;;;;;;;13.90;100.00;100921.63;5027748;28;20034;-73
2024/04/06 00:53:32;;;;;;;2.50;1.45;;;;;;;13.89;100.00;100925.22;5018115;28;20500;-72
2024/04/06 00:55:58;;;;;;;8.73;1.73;;;;;;;13.91;100.00;100926.66;5031631;28;20033;-72
2024/04/06 00:58:24;;;;;;;5.68;1.70;;;;;;;13.88;100.00;100923.59;5032144;28;21369;-72
2024/04/06 01:00:49;;;;;;;6.35;1.50;;;;;;;13.85;100.00;100924.75;5030406;28;20030;-72
2024/04/06 01:03:15;;;;;;;5.05;1.85;;;;;;;13.81;100.00;100929.50;5024281;28;20049;-73
2024/04/06 01:05:40;;;;;;;4.53;1.65;;;;;;;13.78;100.00;100932.44;5035319;28;20037;-73
2024/04/06 01:08:06;;;;;;;3.40;1.35;;;;;;;13.80;100.00;100940.09;5009901;28;20041;-73
2024/04/06 01:10:31;;;;;;;6.35;1.40;;;;;;;13.74;100.00;100940.78;5031740;28;20380;-73
2024/04/06 01:12:56;;;;;;;2.20;1.10;;;;;;;13.65;100.00;100941.84;5047702;28;20025;-72
2024/04/06 01:15:23;;;;;;;2.88;1.00;;;;;;;13.60;100.00;100939.75;5026356;28;20044;-72
2024/04/06 01:17:51;;;;;;;5.68;2.10;;;;;;;13.55;100.00;100950.69;5031053;28;20089;-73
2024/04/06 01:20:16;;;;;;;4.43;1.55;;;;;;;13.52;100.00;100948.41;5031670;28;20033;-73
2024/04/06 01:22:42;;;;;;;7.13;1.48;;;;;;;13.46;100.00;100954.31;5030436;28;20128;-73
2024/04/06 01:25:08;;;;;;;3.53;1.55;;;;;;;13.39;100.00;100945.53;5029795;28;20038;-73
2024/04/06 01:27:34;;;;;;;5.78;1.33;;;;;;;13.33;100.00;100947.03;5030213;28;20094;-73
2024/04/06 01:29:59;;;;;;;4.10;1.42;;;;;;;13.30;100.00;100941.31;5028943;28;20033;-72
2024/04/06 01:32:25;;;;;;;3.30;1.35;;;;;;;13.27;100.00;100944.28;5017537;28;20121;-72
2024/04/06 01:34:50;;;;;;;3.88;1.52;;;;;;;13.24;100.00;100945.41;5028753;28;20037;-73
2024/04/06 01:37:16;;;;;;;3.13;1.13;;;;;;;13.22;100.00;100942.19;5024029;28;20048;-73
2024/04/06 01:39:42;;;;;;;4.55;2.22;;;;;;;13.19;100.00;100934.72;5024498;28;20057;-73
2024/04/06 01:42:07;;;;;;;3.65;1.38;;;;;;;13.18;100.00;100938.28;5027993;28;20052;-72
2024/04/06 01:44:33;;;;;;;3.60;1.38;;;;;;;13.17;100.00;100934.88;5028079;28;20037;-73
2024/04/06 01:46:58;;;;;;;4.15;1.50;;;;;;;13.16;100.00;100935.06;5014534;28;20034;-72
2024/04/06 01:49:24;;;;;;;5.22;1.23;;;;;;;13.10;100.00;100935.75;5026476;28;20030;-72
2024/04/06 01:51:50;;;;;;;5.03;1.50;;;;;;;13.04;100.00;100938.03;5026086;28;20045;-72
2024/04/06 01:54:15;;;;;;;2.60;1.05;;;;;;;12.99;100.00;100945.53;5012532;28;20827;-72
2024/04/06 01:56:40;;;;;;;2.45;1.40;;;;;;;12.97;100.00;100949.28;5030807;28;20125;-72
2024/04/06 01:59:07;;;;;;;1.85;1.40;;;;;;;12.92;100.00;100939.38;5030466;28;20087;-72
2024/04/06 02:01:33;;;;;;;5.43;1.58;;;;;;;12.91;100.00;100947.34;5025970;28;20036;-72
2024/04/06 02:03:58;;;;;;;2.63;1.17;;;;;;;12.87;100.00;100951.28;5028806;28;20037;-73
2024/04/06 02:06:24;;;;;;;9.57;1.55;;;;;;;12.81;100.00;100947.56;5024979;28;20112;-72
2024/04/06 02:08:49;;;;;;;5.35;1.35;;;;;;;12.78;100.00;100937.47;5022153;28;20492;-72
2024/04/06 02:11:14;;;;;;;5.07;1.40;;;;;;;12.73;100.00;100940.56;5010606;28;20512;-72
2024/04/06 02:13:40;;;;;;;2.17;1.50;;;;;;;12.69;100.00;100928.06;5025964;28;20549;-72
2024/04/06 02:16:05;;;;;;;4.55;1.77;;;;;;;12.64;100.00;100925.97;5028097;28;20800;-72
2024/04/06 02:18:31;;;;;;;5.53;1.48;;;;;;;12.60;100.00;100915.09;5029223;28;20037;-73
2024/04/06 02:20:56;;;;;;;7.07;1.55;;;;;;;12.54;100.00;100904.50;5029449;28;20041;-72
2024/04/06 02:23:22;;;;;;;8.15;1.70;;;;;;;12.56;100.00;100908.56;5024959;28;20037;-73
2024/04/06 02:25:47;;;;;;;4.43;1.60;;;;;;;12.51;100.00;100907.44;5027161;28;20088;-72
2024/04/06 02:28:13;;;;;;;2.97;1.40;;;;;;;12.44;100.00;100915.91;5033031;28;20028;-72
2024/04/06 02:30:38;;;;;;;8.55;1.42;;;;;;;12.47;100.00;100927.78;5029589;28;20025;-72
2024/04/06 02:33:05;;;;;;;4.00;1.70;;;;;;;12.48;100.00;100916.38;5026482;28;20030;-72
2024/04/06 02:35:30;;;;;;;8.25;2.05;;;;;;;12.45;100.00;100907.16;5043710;28;20716;-73
2024/04/06 02:37:56;;;;;;;3.33;1.30;;;;;;;12.48;100.00;100906.00;5015827;28;20052;-72
2024/04/06 02:40:21;;;;;;;3.88;1.95;;;;;;;12.38;100.00;100900.97;5037626;28;20038;-72
2024/04/06 02:42:46;;;;;;;5.78;1.65;;;;;;;12.47;100.00;100896.59;5034146;28;20033;-72
2024/04/06 02:45:12;;;;;;;5.53;1.58;;;;;;;12.49;100.00;100899.00;5033050;28;20048;-72
2024/04/06 02:47:37;;;;;;;7.10;1.98;;;;;;;12.50;100.00;100892.81;5027403;28;20029;-72
2024/04/06 02:50:03;;;;;;;7.32;1.65;;;;;;;12.59;100.00;100884.03;5020680;28;20443;-72
2024/04/06 02:52:28;;;;;;;9.18;2.03;;;;;;;12.55;100.00;100886.16;5013913;28;20033;-72
2024/04/06 02:54:54;;;;;;;6.55;1.73;;;;;;;12.56;100.00;100877.34;5027237;28;20037;-73
2024/04/06 02:57:19;;;;;;;5.82;1.98;;;;;;;12.49;100.00;100873.81;5031966;28;20021;-73
2024/04/06 02:59:45;;;;;;;7.55;2.25;;;;;;;12.49;100.00;100872.97;5026194;28;20428;-72
2024/04/06 03:02:11;;;;;;;7.68;2.35;;;;;;;12.52;100.00;100864.84;5027362;28;20418;-72
2024/04/06 03:04:41;;;;;;;5.72;2.42;;;;;;;12.58;100.00;100851.19;5026957;28;20040;-73
2024/04/06 03:07:07;;;;;;;6.43;3.05;;;;;;;12.58;100.00;100848.56;5026614;28;20041;-72
2024/04/06 03:09:35;;;;;;;8.02;2.58;;;;;;;12.53;100.00;100843.88;5013952;28;20530;-72
2024/04/06 03:12:02;;;;;;;8.43;2.63;;;;;;;12.57;100.00;100846.97;5025931;28;20041;-72
2024/04/06 03:14:29;;;;;;;8.07;2.70;;;;;;;12.53;100.00;100856.09;5026498;28;20111;-72
2024/04/06 03:16:54;;;;;;;11.55;2.80;;;;;;;12.51;100.00;100858.03;5029272;28;20029;-72
2024/04/06 03:19:19;;;;;;;6.68;2.50;;;;;;;12.49;100.00;100868.63;5029239;28;20401;-72
2024/04/06 03:21:45;;;;;;;5.78;2.72;;;;;;;12.48;100.00;100871.38;5035203;28;20407;-73
2024/04/06 03:24:11;;;;;;;9.25;2.63;;;;;;;12.44;100.00;100894.31;5021983;28;20036;-72
2024/04/06 03:26:36;;;;;;;6.38;2.30;;;;;;;12.41;100.00;100897.22;5027394;28;20463;-72
2024/04/06 03:29:02;;;;;;;9.88;2.60;;;;;;;12.44;100.00;100902.91;5027351;28;20467;-72
2024/04/06 03:31:29;;;;;;;6.82;2.63;;;;;;;12.54;100.00;100904.50;5032538;28;20025;-73
2024/04/06 03:33:54;;;;;;;7.78;2.42;;;;;;;12.47;100.00;100912.19;5021090;28;20046;-73
2024/04/06 03:36:20;;;;;;;4.03;2.28;;;;;;;12.42;100.00;100922.25;5032588;28;20178;-72
2024/04/06 03:38:45;;;;;;;5.15;2.20;;;;;;;12.36;100.00;100917.72;5031569;28;20504;-73
2024/04/06 03:41:11;;;;;;;8.48;2.35;;;;;;;12.54;100.00;100914.91;5027093;28;20032;-72
2024/04/06 03:43:36;;;;;;;7.70;2.17;;;;;;;12.49;100.00;100912.00;5029054;28;20041;-73
2024/04/06 03:46:01;;;;;;;6.68;2.30;;;;;;;12.41;100.00;100910.22;5026135;28;20881;-72
2024/04/06 03:48:30;;;;;;;4.60;2.15;;;;;;;12.36;100.00;100910.72;5025602;28;20680;-72
2024/04/06 03:50:56;;;;;;;6.15;2.90;;;;;;;12.33;100.00;100900.66;5026984;28;20179;-72
2024/04/06 03:53:42;;;;;;;9.30;2.20;;;;;;;12.34;100.00;100898.84;5023125;28;20039;-73
2024/04/06 03:56:07;;;;;;;8.50;2.38;;;;;;;12.27;100.00;100896.13;5024647;28;20549;-73
2024/04/06 03:58:33;;;;;;;5.00;2.30;;;;;;;12.30;100.00;100890.59;5026547;28;20033;-72
2024/04/06 04:00:58;;;;;;;8.65;2.15;;;;;;;12.29;100.00;100888.16;5025337;28;20545;-72
2024/04/06 04:03:23;;;;;;;5.90;2.15;;;;;;;12.26;100.00;100889.28;5026740;28;20412;-73
2024/04/06 04:05:49;;;;;;;6.18;2.50;;;;;;;12.23;100.00;100887.81;5022655;28;20476;-72
2024/04/06 04:08:15;;;;;;;9.73;2.75;;;;;;;12.15;100.00;100879.22;5027494;28;20086;-73
2024/04/06 04:10:41;;;;;;;6.80;2.35;;;;;;;12.17;100.00;100885.09;5025434;28;20084;-72
2024/04/06 04:13:09;;;;;;;5.72;2.63;;;;;;;12.16;100.00;100883.44;5034853;28;20037;-73
2024/04/06 04:15:39;;;;;;;7.97;2.63;;;;;;;12.14;100.00;100873.22;5032878;28;20038;-73
2024/04/06 04:18:05;;;;;;;8.35;2.35;;;;;;;12.11;100.00;100873.56;5027564;28;20029;-72
2024/04/06 04:20:31;;;;;;;9.80;2.85;;;;;;;12.16;100.00;100876.47;5031569;28;20415;-73
2024/04/06 04:22:57;;;;;;;5.75;2.90;;;;;;;12.12;100.00;100872.56;5035731;28;20044;-73
2024/04/06 04:25:22;;;;;;;9.63;2.80;;;;;;;12.15;100.00;100869.66;5034125;28;20037;-73
2024/04/06 04:27:48;;;;;;;8.05;3.35;;;;;;;12.13;100.00;100869.00;5027588;28;20052;-73
2024/04/06 04:30:15;;;;;;;8.75;2.90;;;;;;;12.06;100.00;100870.63;5041413;28;20045;-73
2024/04/06 04:32:42;;;;;;;6.68;2.65;;;;;;;12.01;100.00;100871.09;5033840;28;20036;-72
2024/04/06 04:35:07;;;;;;;5.25;2.70;;;;;;;12.03;100.00;100861.34;5028936;28;20492;-72
2024/04/06 04:37:32;;;;;;;8.18;3.30;;;;;;;12.01;100.00;100867.72;5031586;28;20037;-72
2024/04/06 04:39:58;;;;;;;6.28;2.90;;;;;;;12.02;100.00;100871.94;5032717;28;20038;-72
2024/04/06 04:42:23;;;;;;;8.93;3.53;;;;;;;12.04;100.00;100870.00;5035922;28;20034;-73
2024/04/06 04:44:49;;;;;;;9.98;2.65;;;;;;;11.98;100.00;100868.84;5031873;28;20092;-73
2024/04/06 04:47:14;;;;;;;7.53;2.63;;;;;;;12.02;100.00;100861.53;5031074;28;20037;-72
2024/04/06 04:49:40;;;;;;;9.45;2.85;;;;;;;12.08;100.00;100866.88;5030096;28;20551;-72
2024/04/06 04:52:05;;;;;;;7.40;2.50;;;;;;;12.08;100.00;100869.47;5030360;28;20492;-73
2024/04/06 04:54:31;;;;;;;8.98;2.70;;;;;;;12.14;100.00;100860.22;5009450;28;20467;-74
2024/04/06 04:56:56;;;;;;;6.47;2.65;;;;;;;12.12;100.00;100859.56;5027264;28;20615;-72
2024/04/06 04:59:21;;;;;;;5.40;2.58;;;;;;;12.15;100.00;100859.25;5029601;28;20030;-72
2024/04/06 05:01:47;;;;;;;5.63;2.92;;;;;;;12.18;100.00;100868.50;5028378;28;20492;-73
2024/04/06 05:04:13;;;;;;;6.20;2.58;;;;;;;12.13;100.00;100865.56;5034097;28;20103;-72
2024/04/06 05:06:38;;;;;;;4.93;2.65;;;;;;;12.18;100.00;100871.91;5035180;28;20033;-72
2024/04/06 05:09:06;;;;;;;4.63;2.78;;;;;;;12.14;100.00;100856.81;5039097;28;20041;-72
2024/04/06 05:11:32;;;;;;;7.75;3.30;;;;;;;12.12;100.00;100846.56;5032057;28;20112;-72
2024/04/06 05:13:58;;;;;;;7.57;3.20;;;;;;;12.20;100.00;100846.56;5033522;28;20771;-72
2024/04/06 05:16:24;;;;;;;6.85;3.67;;;;;;;12.22;100.00;100849.00;5032795;28;20029;-73
2024/04/06 05:18:49;;;;;;;7.38;3.85;;;;;;;12.29;100.00;100854.34;5026144;28;20687;-73
2024/04/06 05:21:15;;;;;;;6.00;3.30;;;;;;;12.31;100.00;100857.59;5029891;28;20037;-73
2024/04/06 05:23:40;;;;;;;8.07;3.47;;;;;;;12.33;100.00;100855.66;5026531;28;20566;-73
2024/04/06 05:26:06;;;;;;;6.97;3.17;;;;;;;12.32;100.00;100854.84;5033090;28;20403;-72
2024/04/06 05:28:31;;;;;;;10.00;3.00;;;;;;;12.39;100.00;100852.38;5030818;28;20036;-73
2024/04/06 05:30:57;;;;;;;8.10;2.53;;;;;;;12.45;100.00;100854.28;5022477;28;20079;-73
2024/04/06 05:33:22;;;;;;;7.93;2.60;;;;;;;12.51;100.00;100847.63;5028111;28;20488;-73
2024/04/06 05:35:49;;;;;;;5.43;2.55;;;;;;;12.59;100.00;100842.41;5030385;28;20040;-73
2024/04/06 05:38:16;;;;;;;8.48;2.53;;;;;;;12.58;100.00;100832.97;5037091;28;20045;-72
2024/04/06 05:40:44;;;;;;;6.38;2.55;;;;;;;12.59;100.00;100835.41;5032250;28;20113;-73
2024/04/06 05:43:10;;;;;;;6.68;2.20;;;;;;;12.69;100.00;100840.41;5016881;28;20048;-72
2024/04/06 05:45:42;;;;;;;7.18;2.63;;;;;;;12.69;100.00;100827.41;5031460;28;20163;-73
2024/04/06 05:48:08;;;;;;;4.97;2.65;;;;;;;12.77;100.00;100835.19;5035610;28;20033;-73
2024/04/06 05:50:37;;;;;;;7.97;2.50;;;;;;;12.74;100.00;100835.50;5030342;28;20591;-73
2024/04/06 05:53:04;;;;;;;5.43;2.30;;;;;;;12.81;100.00;100830.47;5029694;28;20029;-73
2024/04/06 05:55:30;;;;;;;9.90;2.83;;;;;;;12.87;100.00;100839.38;5017652;28;20128;-73
2024/04/06 05:57:56;;;;;;;6.80;2.58;;;;;;;12.88;100.00;100835.78;5030392;28;20025;-73
2024/04/06 06:00:24;;;;;;;5.75;2.13;;;;;;;12.91;100.00;100828.44;5013430;28;20045;-73
2024/04/06 06:02:51;;;;;;;7.63;2.20;;;;;;;12.97;100.00;100825.16;5031510;28;20550;-72
2024/04/06 06:05:17;;;;;;;4.72;2.47;;;;;;;13.00;100.00;100824.03;5031644;28;20029;-73
2024/04/06 06:07:42;;;;;;;5.70;2.97;;;;;;;12.98;100.00;100834.59;5011625;28;20036;-73
2024/04/06 06:10:08;;;;;;;5.70;2.10;;;;;;;13.10;100.00;100835.00;5035438;28;20396;-73
2024/04/06 06:12:34;;;;;;;9.77;2.55;;;;;;;13.16;100.00;100836.91;5032993;28;20181;-73
2024/04/06 06:15:00;;;;;;;8.10;2.40;;;;;;;13.23;100.00;100850.88;5028092;28;20033;-73
2024/04/06 06:17:25;;;;;;;6.30;1.88;;;;;;;13.21;100.00;100850.25;5025125;28;20025;-73
2024/04/06 06:19:51;;;;;;;6.13;2.20;;;;;;;13.31;100.00;100846.63;5025307;28;20068;-73
2024/04/06 06:22:17;;;;;;;4.95;1.90;;;;;;;13.37;100.00;100845.94;5026994;28;20025;-73
2024/04/06 06:24:42;;;;;;;4.78;1.90;;;;;;;13.38;100.00;100850.97;5034155;28;20488;-73
2024/04/06 06:27:08;;;;;;;8.60;2.35;;;;;;;13.43;100.00;100848.69;5027371;28;20043;-73
2024/04/06 06:29:34;;;;;;;4.85;1.95;;;;;;;13.41;100.00;100844.59;5034273;28;20483;-73
2024/04/06 06:32:00;;;;;;;7.70;2.00;;;;;;;13.46;100.00;100849.31;5031055;28;20024;-73
2024/04/06 06:34:26;;;;;;;6.80;1.95;;;;;;;13.54;100.00;100854.47;5035845;28;20493;-72
2024/04/06 06:36:52;;;;;;;6.88;2.80;;;;;;;13.59;100.00;100842.53;5033349;28;20121;-73
2024/04/06 06:39:17;;;;;;;11.40;2.45;;;;;;;13.69;100.00;100838.88;5031788;28;20156;-73
2024/04/06 06:41:43;;;;;;;5.80;1.90;;;;;;;13.77;100.00;100836.22;5035359;28;20641;-73
2024/04/06 06:44:08;;;;;;;6.55;2.08;;;;;;;13.89;100.00;100829.59;5029834;28;20040;-73
2024/04/06 06:46:35;;;;;;;5.60;2.22;;;;;;;14.06;100.00;100816.41;5034943;28;20033;-72
2024/04/06 06:49:00;;;;;;;7.75;2.20;;;;;;;14.14;100.00;100814.50;5030945;28;20033;-73
2024/04/06 06:51:26;;;;;;;4.07;2.20;;;;;;;14.14;100.00;100809.28;5018498;28;20499;-74
2024/04/06 06:53:52;;;;;;;7.03;2.75;;;;;;;14.30;100.00;100812.75;5014326;28;20122;-73
2024/04/06 06:56:20;;;;;;;8.40;2.35;;;;;;;14.51;100.00;100814.63;5026437;28;20029;-72
2024/04/06 06:58:46;;;;;;;4.10;1.92;;;;;;;14.99;100.00;100823.66;5027122;28;20116;-73
2024/04/06 07:01:11;;;;;;;9.50;2.22;;;;;;;15.45;99.27;100821.69;5027624;28;20159;-75
2024/04/06 07:03:37;;;;;;;7.38;2.20;;;;;;;16.06;95.17;100819.34;5027892;28;20037;-73
2024/04/06 07:06:03;;;;;;;5.20;1.98;;;;;;;16.34;91.90;100829.78;5029533;28;20033;-73
2024/04/06 07:08:30;;;;;;;5.55;2.45;;;;;;;16.46;89.88;100824.00;5014967;28;20033;-75
2024/04/06 07:10:56;;;;;;;6.53;1.73;;;;;;;16.89;87.30;100827.22;5026456;28;20057;-74
2024/04/06 07:13:21;;;;;;;5.28;2.10;;;;;;;17.11;85.46;100824.47;5033988;28;20064;-73
2024/04/06 07:15:47;;;;;;;8.40;1.92;;;;;;;17.67;82.89;100818.09;5021940;28;20025;-73
2024/04/06 07:18:12;;;;;;;8.02;1.60;;;;;;;18.20;79.74;100812.78;5025811;28;20030;-73
2024/04/06 07:20:39;;;;;;;6.30;1.80;;;;;;;18.14;79.01;100813.63;5023619;28;20606;-73
2024/04/06 07:23:04;;;;;;;7.95;2.50;;;;;;;18.25;76.71;100814.78;5034056;28;20029;-74
2024/04/06 07:25:30;;;;;;;4.25;1.70;;;;;;;18.20;77.30;100809.34;5033359;28;20098;-73
2024/04/06 07:27:56;;;;;;;4.40;1.88;;;;;;;18.46;75.70;100813.72;5013026;28;20577;-73
2024/04/06 07:30:22;;;;;;;9.48;2.05;;;;;;;18.80;74.12;100803.88;5029378;28;20038;-73
2024/04/06 07:32:47;;;;;;;6.38;1.92;;;;;;;19.00;72.46;100814.28;5014574;28;20033;-73
2024/04/06 07:35:13;;;;;;;5.65;1.63;;;;;;;19.47;71.34;100799.00;5034417;28;20482;-73
2024/04/06 07:37:38;;;;;;;8.88;1.73;;;;;;;19.72;69.44;100790.28;5012457;28;20399;-73
2024/04/06 07:40:04;;;;;;;8.75;2.13;;;;;;;19.87;68.91;100784.72;5015342;28;20393;-74
2024/04/06 07:42:31;;;;;;;6.53;2.10;;;;;;;19.52;69.33;100780.75;5031227;28;20124;-73
2024/04/06 07:44:57;;;;;;;5.95;2.00;;;;;;;19.49;70.53;100773.28;5031964;28;20037;-73
2024/04/06 07:47:25;;;;;;;4.85;1.77;;;;;;;19.61;70.93;100771.56;5030343;28;20048;-73
2024/04/06 07:49:51;;;;;;;5.65;2.08;;;;;;;19.66;69.71;100784.06;5010557;28;20034;-74
2024/04/06 07:52:16;;;;;;;5.53;1.67;;;;;;;19.79;68.66;100780.53;5029134;28;20040;-73
2024/04/06 07:54:42;;;;;;;6.15;1.30;;;;;;;19.53;69.36;100782.34;5030078;28;20824;-74
2024/04/06 07:57:07;;;;;;;7.25;2.17;;;;;;;19.75;69.40;100780.16;5033725;28;20431;-73
2024/04/06 07:59:33;;;;;;;5.78;1.80;;;;;;;20.13;69.10;100775.75;5026458;28;20045;-73
2024/04/06 08:01:58;;;;;;;9.63;2.65;;;;;;;20.14;67.44;100774.72;5037509;28;20029;-74
2024/04/06 08:04:26;;;;;;;4.85;2.05;;;;;;;19.95;66.78;100774.72;5028469;28;20045;-73
2024/04/06 08:06:52;;;;;;;6.40;1.88;;;;;;;20.26;65.96;100772.94;5026780;28;20471;-74
2024/04/06 08:09:17;;;;;;;10.85;1.80;;;;;;;20.26;65.83;100788.75;5021907;28;20033;-74
2024/04/06 08:11:43;;;;;;;4.05;1.60;;;;;;;20.30;65.69;100778.59;5030882;28;20476;-74
2024/04/06 08:14:08;;;;;;;4.80;1.70;;;;;;;20.60;64.57;100781.28;5030522;28;20055;-73
2024/04/06 08:16:34;;;;;;;3.28;1.52;;;;;;;20.31;64.72;100781.00;5029384;28;20056;-74
2024/04/06 08:18:59;;;;;;;8.68;2.10;;;;;;;20.15;65.48;100774.50;5031087;28;20041;-74
2024/04/06 08:21:25;;;;;;;4.25;1.83;;;;;;;20.68;64.70;100775.72;5022544;28;20041;-74
2024/04/06 08:23:50;;;;;;;4.47;1.73;;;;;;;20.87;63.64;100767.72;5025870;28;20038;-73
2024/04/06 08:26:16;;;;;;;6.95;1.55;;;;;;;20.33;64.82;100760.53;5029008;28;20118;-73
2024/04/06 08:28:41;;;;;;;4.05;1.67;;;;;;;20.89;64.79;100752.50;5024908;28;20064;-74
2024/04/06 08:31:06;;;;;;;5.57;1.60;;;;;;;21.02;62.92;100759.41;5023786;28;21889;-74
2024/04/06 08:33:32;;;;;;;7.30;1.45;;;;;;;21.41;62.13;100755.31;5033207;28;20500;-74
2024/04/06 08:36:00;;;;;;;3.97;1.42;;;;;;;21.52;61.98;100753.75;5026093;28;20053;-74
2024/04/06 08:38:26;;;;;;;4.57;1.83;;;;;;;22.21;60.63;100740.69;5024998;28;20121;-74
2024/04/06 08:40:52;;;;;;;4.68;1.50;;;;;;;22.38;57.65;100737.31;5020226;28;20041;-74
2024/04/06 08:43:18;;;;;;;7.90;1.80;;;;;;;22.32;56.97;100739.88;5031119;28;20072;-74
2024/04/06 08:45:44;;;;;;;8.15;1.67;;;;;;;22.52;55.33;100733.34;5012251;28;20017;-75
2024/04/06 08:48:12;;;;;;;3.75;1.60;;;;;;;22.18;55.63;100733.22;5022896;28;20030;-75
2024/04/06 08:50:38;;;;;;;4.05;1.50;;;;;;;22.33;55.69;100743.31;5029692;28;20102;-74
2024/04/06 08:53:06;;;;;;;4.35;1.10;;;;;;;22.18;53.46;100749.06;5024783;28;20036;-74
2024/04/06 08:55:32;;;;;;;4.55;1.40;;;;;;;22.45;53.39;100738.81;5010166;28;20052;-75
2024/04/06 08:57:58;;;;;;;2.25;1.00;;;;;;;22.53;51.50;100746.34;5023607;28;20659;-73
2024/04/06 09:00:29;;;;;;;5.78;1.25;;;;;;;22.74;50.94;100746.69;5020218;28;20029;-74
2024/04/06 09:02:55;;;;;;;3.53;1.30;;;;;;;22.77;50.71;100740.91;5030044;28;20044;-74
2024/04/06 09:05:20;;;;;;;2.55;1.15;;;;;;;22.45;50.45;100748.53;5029397;28;20022;-74
2024/04/06 09:07:47;;;;;;;7.35;1.30;;;;;;;22.71;50.40;100740.03;5029351;28;20511;-74
2024/04/06 09:10:13;;;;;;;2.55;1.35;;;;;;;22.68;49.44;100737.09;5032559;28;20444;-75
2024/04/06 09:12:38;;;;;;;4.05;1.13;;;;;;;22.90;49.21;100737.97;5029591;28;20079;-74
2024/04/06 09:15:06;;;;;;;6.50;1.30;;;;;;;22.30;49.74;100735.84;5032203;28;20063;-77
2024/04/06 09:17:32;;;;;;;7.03;1.27;;;;;;;22.59;50.16;100728.75;5028805;28;20072;-75
2024/04/06 09:19:57;;;;;;;2.67;0.90;;;;;;;22.46;48.64;100729.03;5032697;28;20034;-74
2024/04/06 09:22:23;;;;;;;3.30;1.25;;;;;;;22.43;49.02;100714.44;5024275;28;20025;-74
2024/04/06 09:24:48;;;;;;;1.83;0.90;;;;;;;22.50;48.50;100712.47;5022234;28;20054;-77
2024/04/06 09:27:16;;;;;;;3.53;0.98;;;;;;;22.50;48.37;100712.47;5032291;28;20064;-74
2024/04/06 09:29:48;;;;;;;3.28;1.20;;;;;;;23.01;48.33;100704.56;5031420;28;20068;-75
2024/04/06 09:32:18;;;;;;;1.45;0.77;;;;;;;23.11;46.74;100702.13;5029442;28;20037;-76
2024/04/06 09:34:52;;;;;;;2.03;1.27;;;;;;;22.70;48.28;100705.94;5032405;28;20029;-76
2024/04/06 09:37:35;;;;;;;3.22;0.75;;;;;;;22.40;47.05;100703.56;5033449;28;20025;-74
2024/04/06 09:40:05;;;;;;;4.75;1.15;;;;;;;22.01;48.25;100701.47;5039647;28;20159;-77
2024/04/06 09:42:31;;;;;;;3.65;1.30;;;;;;;22.14;49.05;100701.22;5037464;28;20075;-75
2024/04/06 09:44:57;;;;;;;4.45;1.20;;;;;;;22.10;48.50;100689.53;5043107;28;20037;-76
2024/04/06 09:47:23;;;;;;;3.65;0.95;;;;;;;22.16;49.82;100693.06;5029110;28;20113;-75
2024/04/06 09:49:49;;;;;;;2.90;1.10;;;;;;;21.92;48.56;100690.47;5029644;28;20034;-76
2024/04/06 09:52:16;;;;;;;3.10;1.10;;;;;;;21.81;49.07;100685.25;5013283;28;20029;-75
2024/04/06 09:54:43;;;;;;;3.55;0.75;;;;;;;21.94;50.70;100680.53;5013743;28;20041;-75
2024/04/06 09:57:08;;;;;;;4.65;0.90;;;;;;;21.75;49.27;100676.41;5042723;28;20030;-75
2024/04/06 09:59:34;;;;;;;3.47;1.08;;;;;;;21.82;50.11;100678.94;5030715;28;20574;-75
2024/04/06 10:02:01;;;;;;;3.50;1.17;;;;;;;21.95;49.07;100668.91;5042908;28;20052;-74
2024/04/06 10:04:32;;;;;;;2.08;0.88;;;;;;;22.18;48.12;100669.84;5029151;28;20108;-76
2024/04/06 10:07:02;;;;;;;2.13;1.00;;;;;;;22.46;48.29;100661.16;5022326;28;20030;-77
2024/04/06 10:09:37;;;;;;;2.45;0.85;;;;;;;22.61;48.71;100665.88;5027447;28;20053;-75
2024/04/06 10:12:06;;;;;;;3.45;1.00;;;;;;;22.37;47.28;100672.34;5026499;28;20028;-76
2024/04/06 10:14:32;;;;;;;2.30;1.00;;;;;;;22.28;48.75;100671.91;5039738;28;20188;-75
2024/04/06 10:17:08;;;;;;;4.88;1.25;;;;;;;22.22;47.40;100667.56;5025279;28;20105;-76
2024/04/06 10:19:35;;;;;;;2.45;0.90;;;;;;;22.29;47.15;100662.97;5034487;28;20512;-75
2024/04/06 10:22:05;;;;;;;2.63;0.80;;;;;;;22.79;47.32;100646.34;5030078;28;20150;-75
2024/04/06 10:24:31;;;;;;;3.35;0.80;;;;;;;22.91;46.72;100649.72;5028902;28;20113;-75
2024/04/06 10:26:57;;;;;;;2.55;0.93;;;;;;;22.89;47.05;100641.22;5028546;28;20034;-76
2024/04/06 10:29:23;;;;;;;3.35;1.02;;;;;;;23.08;46.25;100639.16;5016157;28;20421;-75
2024/04/06 10:31:49;;;;;;;2.72;0.80;;;;;;;23.19;46.23;100636.63;5028424;28;20032;-76
2024/04/06 10:34:16;;;;;;;2.75;0.90;;;;;;;23.39;46.05;100628.97;5041990;28;20037;-76
2024/04/06 10:36:42;;;;;;;5.00;1.40;;;;;;;23.51;45.51;100628.88;5027867;28;20124;-76
2024/04/06 10:39:08;;;;;;;1.90;0.90;;;;;;;23.39;44.42;100646.69;5040650;28;20103;-76
2024/04/06 10:41:35;;;;;;;7.75;0.88;;;;;;;23.35;44.95;100633.16;5031412;28;20033;-75
2024/04/06 10:44:01;;;;;;;3.63;0.80;;;;;;;23.57;46.86;100640.31;5031397;28;20411;-76
2024/04/06 10:46:26;;;;;;;2.97;1.20;;;;;;;23.55;45.28;100624.69;5024960;28;20051;-76
2024/04/06 10:48:53;;;;;;;6.57;1.63;;;;;;;23.54;45.87;100622.28;5026003;28;20037;-76
2024/04/06 10:51:18;;;;;;;1.58;0.93;;;;;;;23.48;44.63;100616.13;5027444;28;20039;-77
2024/04/06 10:53:45;;;;;;;2.13;0.95;;;;;;;23.41;44.95;100626.88;5027353;28;20131;-76
2024/04/06 10:56:10;;;;;;;2.40;0.75;;;;;;;23.37;44.90;100627.63;5017931;28;20052;-75
2024/04/06 10:58:36;;;;;;;5.78;2.03;;;;;;;23.50;44.56;100630.69;5033107;28;20041;-76
2024/04/06 11:01:34;;;;;;;4.22;1.52;;;;;;;23.30;44.46;100617.19;5016335;28;20033;-75
2024/04/06 11:04:03;;;;;;;3.47;1.02;;;;;;;23.40;45.01;100625.28;5025523;28;20060;-76
2024/04/06 11:06:30;;;;;;;2.05;0.70;;;;;;;23.54;44.92;100620.41;5044976;28;20022;-76
2024/04/06 11:08:55;;;;;;;3.65;1.10;;;;;;;23.60;44.67;100618.63;5030144;28;20037;-76
2024/04/06 11:11:21;;;;;;;4.30;1.08;;;;;;;23.51;45.41;100613.78;5030531;28;20072;-76
2024/04/06 11:13:47;;;;;;;7.15;1.48;;;;;;;23.62;44.45;100620.00;5029540;28;20188;-76
2024/04/06 11:16:12;;;;;;;2.22;1.30;;;;;;;23.75;46.09;100618.78;5038117;28;20535;-75